Fairwater, Wisconsin
Current Conditions -  °F | °C
As of 6:53 AM on Thursday 30 Oct 2014 (Local Time) from KFLD Reporting Station
Clear Clear  
Wind Chill: 27°   Ceiling: Unl
Heat Index: 32°   Visibility: 10mi
Dew Point: 30°   Wind: 5mph
Humidity: 92%   Direction: 170°S
Pressure: 30.1"   Gusts: NA
Location:  43.74°N, 88.87°W
Report Text: KFLD 301153Z AUTO 17004KT 10SM CLR 00/M01 A3010 RMK AO2 SLP199 T00001011 10011 21011 50000
Loading
Personal Weather Stations






























Interactive Weather Map
Tropical Storm Tracking
New forecast layout! Learn more

10-Day Weather Forecast

Advertisements
Track Severe Weather on mobile